Time;durP1;ratioP1;P1;durP2;ratioP2;P2;SDS_P1;SDS_P2;PMS_P1;PMS_P2;Temp;Humidity;BMP_temperature;BMP_pressure;BME280_temperature;BME280_humidity;BME280_pressure;Samples;Min_cycle;Max_cycle;Signal;HPM_P1;HPM_P2
2023/01/29 00:01:06;;;;;;;12.45;7.53;;;4.00;99.90;;;;;;5059767;28;20075;-57
2023/01/29 00:03:33;;;;;;;13.07;7.15;;;3.80;99.90;;;;;;5059284;28;20045;-57
2023/01/29 00:05:59;;;;;;;14.23;7.70;;;4.00;99.90;;;;;;5059358;28;20044;-57
2023/01/29 00:08:26;;;;;;;15.70;8.45;;;3.70;99.90;;;;;;5059196;28;20053;-57
2023/01/29 00:10:52;;;;;;;15.43;8.88;;;4.40;99.90;;;;;;5059035;28;20044;-57
2023/01/29 00:13:17;;;;;;;16.65;8.13;;;3.90;99.90;;;;;;5058897;28;20129;-58
2023/01/29 00:15:54;;;;;;;15.40;8.25;;;4.00;99.90;;;;;;5059010;28;20152;-56
2023/01/29 00:18:19;;;;;;;14.18;8.15;;;4.10;99.90;;;;;;5059302;28;20037;-56
2023/01/29 00:20:45;;;;;;;14.15;8.32;;;3.80;99.90;;;;;;5059124;28;20051;-57
2023/01/29 00:23:11;;;;;;;15.48;8.50;;;4.10;99.90;;;;;;5058868;28;20036;-57
2023/01/29 00:25:36;;;;;;;16.92;8.45;;;3.80;99.90;;;;;;5058935;28;20587;-57
2023/01/29 00:28:02;;;;;;;18.00;8.95;;;3.90;99.90;;;;;;5058724;28;20053;-57
2023/01/29 00:30:28;;;;;;;14.70;8.40;;;3.80;99.90;;;;;;5059283;28;20132;-57
2023/01/29 00:32:53;;;;;;;17.50;8.85;;;3.90;99.90;;;;;;5058886;28;20105;-56
2023/01/29 00:35:19;;;;;;;15.73;8.52;;;3.80;99.90;;;;;;5059420;28;20453;-56
2023/01/29 00:37:45;;;;;;;15.98;9.27;;;3.80;99.90;;;;;;5058812;28;20516;-56
2023/01/29 00:40:11;;;;;;;18.27;9.77;;;4.20;99.90;;;;;;5058778;28;20638;-57
2023/01/29 00:45:20;;;;;;;18.73;9.50;;;3.90;99.90;;;;;;5058946;28;20060;-56
2023/01/29 00:47:46;;;;;;;17.05;10.20;;;4.20;99.90;;;;;;5059008;28;20049;-57
2023/01/29 00:50:12;;;;;;;19.55;10.10;;;3.90;99.90;;;;;;5040943;28;20059;-57
2023/01/29 00:52:41;;;;;;;16.80;10.10;;;3.90;99.90;;;;;;5059214;28;20066;-57
2023/01/29 00:55:09;;;;;;;20.27;11.18;;;3.90;99.90;;;;;;5077954;28;20055;-57
2023/01/29 00:57:35;;;;;;;18.45;9.50;;;4.10;99.90;;;;;;5078721;28;20044;-57
2023/01/29 01:00:03;;;;;;;16.60;10.20;;;3.90;99.90;;;;;;5078757;28;20116;-56
2023/01/29 01:05:18;;;;;;;18.98;10.38;;;3.90;99.90;;;;;;5079031;28;20046;-57
2023/01/29 01:07:48;;;;;;;17.15;10.55;;;4.00;99.90;;;;;;5078474;28;20504;-57
2023/01/29 01:10:23;;;;;;;17.90;10.23;;;4.00;99.90;;;;;;5078526;28;20095;-57
2023/01/29 01:12:52;;;;;;;18.42;11.05;;;4.20;99.90;;;;;;5078619;28;20044;-57
2023/01/29 01:15:18;;;;;;;20.27;11.07;;;4.00;99.90;;;;;;5078467;28;20044;-57
2023/01/29 01:17:44;;;;;;;18.73;11.10;;;4.20;99.90;;;;;;5078950;28;20044;-56
2023/01/29 01:20:12;;;;;;;17.63;10.73;;;4.20;99.90;;;;;;5078237;28;20496;-56
2023/01/29 01:22:38;;;;;;;18.65;11.73;;;3.90;99.90;;;;;;5060797;28;20053;-57
2023/01/29 01:25:04;;;;;;;17.42;10.32;;;3.90;99.90;;;;;;5082090;28;20048;-56
2023/01/29 01:27:30;;;;;;;19.23;11.32;;;4.20;99.90;;;;;;5082488;28;20044;-56
2023/01/29 01:29:55;;;;;;;19.92;11.50;;;4.10;99.90;;;;;;5082425;28;20049;-57
2023/01/29 01:32:21;;;;;;;17.58;11.40;;;4.30;99.90;;;;;;5082231;28;20052;-57
2023/01/29 01:34:46;;;;;;;18.08;11.20;;;4.20;99.90;;;;;;5082539;28;20041;-56
2023/01/29 01:37:12;;;;;;;19.30;10.80;;;4.10;99.90;;;;;;5082232;28;20051;-57
2023/01/29 01:39:38;;;;;;;18.08;11.43;;;4.00;99.90;;;;;;5082528;28;20377;-57
2023/01/29 01:42:10;;;;;;;18.10;10.77;;;3.90;99.90;;;;;;5082179;28;20128;-57
2023/01/29 01:45:04;;;;;;;18.17;10.45;;;4.20;99.90;;;;;;5082076;28;20047;-57
2023/01/29 01:47:40;;;;;;;20.52;10.85;;;4.00;99.90;;;;;;5081882;28;20045;-57
2023/01/29 01:50:14;;;;;;;17.40;9.85;;;4.10;99.90;;;;;;5081965;28;20040;-57
2023/01/29 01:52:45;;;;;;;16.77;10.23;;;4.30;99.90;;;;;;5082241;28;20622;-56
2023/01/29 01:55:13;;;;;;;18.52;10.20;;;4.90;99.90;;;;;;5061844;28;20047;-57
2023/01/29 01:57:42;;;;;;;20.02;11.63;;;4.30;99.90;;;;;;5061573;28;20037;-55
2023/01/29 02:00:12;;;;;;;19.30;10.60;;;4.00;99.90;;;;;;5061788;28;20052;-57
2023/01/29 02:10:57;;;;;;;19.23;11.90;;;3.90;99.90;;;;;;5061251;28;20614;-57
2023/01/29 02:13:23;;;;;;;20.40;12.15;;;3.90;99.90;;;;;;5062104;28;20040;-55
2023/01/29 02:15:48;;;;;;;21.90;12.10;;;4.20;99.90;;;;;;5061502;28;20064;-56
2023/01/29 02:18:16;;;;;;;24.00;13.00;;;3.90;99.90;;;;;;5061638;28;20524;-57
2023/01/29 02:20:48;;;;;;;23.17;12.52;;;4.20;99.90;;;;;;5061097;28;20049;-57
2023/01/29 02:23:36;;;;;;;21.20;12.60;;;3.80;99.90;;;;;;5061280;28;20033;-57
2023/01/29 02:26:28;;;;;;;23.25;12.45;;;4.00;99.90;;;;;;5061341;28;20053;-57
2023/01/29 02:29:46;;;;;;;26.88;14.32;;;4.00;99.90;;;;;;5061229;28;20099;-57
2023/01/29 02:32:22;;;;;;;20.60;12.13;;;4.30;99.90;;;;;;5037108;28;20460;-57
2023/01/29 02:38:20;;;;;;;23.20;13.30;;;3.80;99.90;;;;;;5061018;28;20079;-57
2023/01/29 02:40:55;;;;;;;26.88;14.45;;;3.90;99.90;;;;;;5042762;28;20052;-57
2023/01/29 02:43:47;;;;;;;25.20;14.82;;;3.80;99.90;;;;;;5061481;28;20040;-56
2023/01/29 02:46:28;;;;;;;;;;;4.20;99.90;;;;;;5061275;28;20048;-56
2023/01/29 02:49:18;;;;;;;26.67;13.98;;;4.30;99.90;;;;;;5060526;28;19920;-56
2023/01/29 02:51:56;;;;;;;28.50;16.60;;;4.40;99.90;;;;;;5061133;28;20079;-56
2023/01/29 02:55:08;;;;;;;29.52;17.20;;;4.30;99.90;;;;;;5074075;28;20043;-57
2023/01/29 02:57:40;;;;;;;31.63;16.33;;;4.40;99.90;;;;;;5026227;28;20574;-56
2023/01/29 03:00:28;;;;;;;30.38;17.98;;;4.00;99.90;;;;;;5080711;28;20049;-57
2023/01/29 03:03:03;;;;;;;30.13;18.00;;;4.40;99.90;;;;;;5080660;28;20032;-57
2023/01/29 03:05:43;;;;;;;33.35;18.23;;;4.30;99.90;;;;;;5080939;28;20064;-57
2023/01/29 03:08:14;;;;;;;29.92;18.15;;;4.30;99.90;;;;;;5080591;28;20048;-57
2023/01/29 03:10:47;;;;;;;29.80;17.70;;;3.70;99.90;;;;;;5080272;28;20489;-56
2023/01/29 03:13:35;;;;;;;31.35;18.40;;;4.40;99.90;;;;;;5080829;28;20037;-57
2023/01/29 03:16:13;;;;;;;33.13;18.55;;;4.20;99.90;;;;;;5080401;28;20040;-56
2023/01/29 03:18:45;;;;;;;33.58;19.48;;;3.70;99.90;;;;;;5080206;28;20049;-57
2023/01/29 03:32:20;;;;;;;46.35;23.70;;;3.70;99.90;;;;;;5079940;28;20082;-55
2023/01/29 03:34:54;;;;;;;42.03;23.98;;;3.60;99.90;;;;;;5079938;28;20071;-57
2023/01/29 03:37:28;;;;;;;45.92;26.30;;;4.00;99.90;;;;;;5061562;28;20053;-57
2023/01/29 03:39:54;;;;;;;47.30;26.10;;;4.30;99.90;;;;;;5079810;28;20044;-56
2023/01/29 03:42:26;;;;;;;50.97;28.23;;;3.70;99.90;;;;;;5061599;28;20069;-57
2023/01/29 03:45:07;;;;;;;48.00;28.83;;;3.60;99.90;;;;;;5079855;28;20090;-57
2023/01/29 03:47:42;;;;;;;51.08;28.13;;;3.90;99.90;;;;;;5078772;28;20048;-56
2023/01/29 03:50:14;;;;;;;46.45;26.05;;;3.60;99.90;;;;;;5079793;28;20090;-57
2023/01/29 03:52:44;;;;;;;49.50;27.33;;;3.60;99.90;;;;;;5079802;28;20123;-57
2023/01/29 03:55:15;;;;;;;43.67;25.55;;;4.10;99.90;;;;;;5079515;28;20083;-57
2023/01/29 03:57:59;;;;;;;46.28;25.63;;;3.80;99.90;;;;;;5079466;28;20076;-57
2023/01/29 04:00:36;;;;;;;43.88;25.98;;;3.90;99.90;;;;;;5079843;28;20056;-57
2023/01/29 04:03:06;;;;;;;45.25;26.98;;;3.80;99.90;;;;;;5079407;28;20494;-56
2023/01/29 04:06:15;;;;;;;43.75;25.27;;;4.00;99.90;;;;;;5079595;28;20102;-57
2023/01/29 04:08:55;;;;;;;45.25;26.33;;;4.10;99.90;;;;;;4997759;28;20077;-56
2023/01/29 04:11:23;;;;;;;42.50;25.10;;;4.30;99.90;;;;;;4997273;28;20061;-57
2023/01/29 04:13:50;;;;;;;41.50;24.17;;;4.30;99.90;;;;;;5044668;28;20056;-57
2023/01/29 04:16:25;;;;;;;41.42;23.60;;;4.10;99.90;;;;;;5079110;28;20101;-57
2023/01/29 04:18:51;;;;;;;40.10;23.15;;;3.90;99.90;;;;;;5078849;28;20033;-56
2023/01/29 04:21:18;;;;;;;34.30;21.20;;;3.90;99.90;;;;;;5079220;28;20076;-57
2023/01/29 04:23:43;;;;;;;41.33;22.48;;;4.20;99.90;;;;;;5079026;28;20051;-53
2023/01/29 04:26:26;;;;;;;35.15;22.38;;;4.20;99.90;;;;;;5079694;28;20483;-57
2023/01/29 04:29:10;;;;;;;37.92;21.17;;;4.00;99.90;;;;;;5079044;28;20049;-57
2023/01/29 04:32:00;;;;;;;35.50;21.45;;;4.00;99.90;;;;;;5079014;28;20052;-57
2023/01/29 04:34:39;;;;;;;35.97;20.63;;;3.80;99.90;;;;;;5079345;28;20041;-57
2023/01/29 04:37:22;;;;;;;34.70;21.85;;;4.40;99.90;;;;;;5069905;28;20048;-57
2023/01/29 04:40:16;;;;;;;40.28;22.92;;;4.20;99.90;;;;;;5078945;28;20048;-56
2023/01/29 04:43:04;;;;;;;37.90;22.70;;;4.30;99.90;;;;;;5078880;28;20467;-57
2023/01/29 04:45:51;;;;;;;37.70;22.52;;;4.00;99.90;;;;;;5078794;28;20052;-57
2023/01/29 04:48:42;;;;;;;32.92;20.70;;;4.30;99.90;;;;;;5078736;28;20044;-57
2023/01/29 04:51:21;;;;;;;37.13;20.85;;;4.00;99.90;;;;;;5078753;28;20560;-57
2023/01/29 04:54:09;;;;;;;37.85;22.35;;;4.00;99.90;;;;;;5078706;28;20503;-57
2023/01/29 04:57:11;;;;;;;35.25;20.40;;;4.40;99.90;;;;;;5079096;28;20046;-57
2023/01/29 04:59:52;;;;;;;34.80;20.75;;;3.90;99.90;;;;;;5050708;28;20112;-57
2023/01/29 05:02:21;;;;;;;35.78;20.02;;;4.00;99.90;;;;;;5078512;28;20488;-57
2023/01/29 05:04:48;;;;;;;31.83;18.85;;;3.90;99.90;;;;;;5078996;28;20049;-56
2023/01/29 05:07:16;;;;;;;34.67;19.85;;;4.10;99.90;;;;;;5078381;28;20044;-57
2023/01/29 05:09:45;;;;;;;32.92;19.55;;;4.10;99.90;;;;;;5078874;28;20443;-57
2023/01/29 05:12:13;;;;;;;32.70;20.52;;;4.10;99.90;;;;;;5078547;28;20036;-57
2023/01/29 05:14:43;;;;;;;30.17;19.45;;;4.40;99.90;;;;;;5078490;28;20041;-57
2023/01/29 05:17:14;;;;;;;33.17;21.13;;;4.00;99.90;;;;;;5078289;28;20045;-57
2023/01/29 05:19:40;;;;;;;34.28;20.85;;;3.90;99.90;;;;;;5078656;28;20519;-56
2023/01/29 05:22:09;;;;;;;27.77;17.27;;;4.00;99.90;;;;;;5078984;28;20060;-57
2023/01/29 05:24:36;;;;;;;28.63;17.15;;;4.00;99.90;;;;;;5078298;28;20044;-57
2023/01/29 05:29:47;;;;;;;28.65;17.25;;;4.20;99.90;;;;;;5078225;28;20051;-55
2023/01/29 05:32:14;;;;;;;31.30;18.08;;;4.50;99.90;;;;;;5060201;28;20095;-57
2023/01/29 05:34:40;;;;;;;31.90;19.38;;;4.10;99.90;;;;;;5078663;28;20055;-56
2023/01/29 05:37:06;;;;;;;31.60;18.15;;;4.10;99.90;;;;;;5078262;28;20072;-57
2023/01/29 05:39:32;;;;;;;31.77;18.15;;;4.20;99.90;;;;;;5078585;28;20036;-57
2023/01/29 05:41:58;;;;;;;33.63;17.27;;;4.00;99.90;;;;;;5078123;28;20119;-57
2023/01/29 05:44:23;;;;;;;29.65;18.42;;;4.00;99.90;;;;;;5078284;28;20036;-57
2023/01/29 05:46:49;;;;;;;29.17;17.90;;;4.30;99.90;;;;;;5078121;28;20104;-57
2023/01/29 05:49:19;;;;;;;29.75;17.58;;;4.30;99.90;;;;;;5077822;28;20131;-57
2023/01/29 05:51:45;;;;;;;29.98;18.38;;;5.00;99.90;;;;;;5060327;28;20052;-56
2023/01/29 05:54:11;;;;;;;27.73;17.42;;;4.10;99.90;;;;;;5078053;28;20063;-57
2023/01/29 05:56:38;;;;;;;27.23;16.92;;;4.10;99.90;;;;;;5078535;28;20037;-56
2023/01/29 05:59:04;;;;;;;28.38;18.02;;;4.20;99.90;;;;;;5078176;28;20044;-57
2023/01/29 06:01:29;;;;;;;26.48;16.75;;;4.50;99.90;;;;;;5077816;28;20544;-57
2023/01/29 06:03:55;;;;;;;28.38;17.35;;;4.20;99.90;;;;;;5078001;28;20032;-57
2023/01/29 06:06:21;;;;;;;29.55;17.42;;;4.40;99.90;;;;;;5078045;28;20126;-57
2023/01/29 06:08:47;;;;;;;30.25;17.10;;;4.20;99.90;;;;;;5078206;28;20500;-57
2023/01/29 06:11:13;;;;;;;30.83;16.70;;;4.40;99.90;;;;;;5080418;28;20072;-57
2023/01/29 06:13:39;;;;;;;29.48;17.50;;;4.40;99.90;;;;;;5082021;28;20099;-57
2023/01/29 06:16:07;;;;;;;27.35;17.35;;;4.50;99.90;;;;;;5081363;28;20052;-57
2023/01/29 06:18:32;;;;;;;33.10;19.25;;;4.20;99.90;;;;;;5081384;28;20039;-57
2023/01/29 06:21:06;;;;;;;28.92;18.17;;;4.50;99.90;;;;;;5081325;28;20036;-57
2023/01/29 06:23:31;;;;;;;30.38;17.13;;;4.30;99.90;;;;;;5081406;28;20052;-57
2023/01/29 06:26:09;;;;;;;27.52;17.02;;;4.30;99.90;;;;;;5081505;28;20429;-57
2023/01/29 06:28:35;;;;;;;29.85;18.25;;;4.30;99.90;;;;;;5081413;28;20079;-56
2023/01/29 06:31:02;;;;;;;32.90;19.52;;;4.60;99.90;;;;;;5081600;28;20048;-57
2023/01/29 06:33:28;;;;;;;30.30;19.02;;;4.40;99.90;;;;;;5081076;28;20054;-56
2023/01/29 06:35:59;;;;;;;29.38;18.38;;;4.60;99.90;;;;;;5081066;28;20032;-56
2023/01/29 06:38:25;;;;;;;30.38;17.58;;;4.30;99.90;;;;;;5081130;28;20059;-57
2023/01/29 06:40:51;;;;;;;31.70;19.38;;;4.50;99.90;;;;;;5080239;28;20052;-57
2023/01/29 06:43:17;;;;;;;33.95;19.52;;;4.30;99.90;;;;;;5081286;28;20047;-57
2023/01/29 06:45:51;;;;;;;30.55;18.35;;;4.60;99.90;;;;;;5081028;28;20135;-57
2023/01/29 06:48:17;;;;;;;30.63;19.88;;;4.40;99.90;;;;;;5081015;28;20045;-57
2023/01/29 06:50:44;;;;;;;35.25;19.70;;;4.60;99.90;;;;;;5080889;28;20059;-57
2023/01/29 06:53:10;;;;;;;36.83;20.27;;;4.60;99.90;;;;;;5080686;28;20041;-57
2023/01/29 06:55:36;;;;;;;33.00;20.52;;;4.50;99.90;;;;;;5080783;28;20044;-57
2023/01/29 06:58:09;;;;;;;33.75;21.23;;;4.60;99.90;;;;;;5080775;28;20045;-57
2023/01/29 07:00:35;;;;;;;36.20;21.95;;;4.50;99.90;;;;;;5081163;28;20122;-56
2023/01/29 07:03:02;;;;;;;39.35;22.13;;;4.50;99.90;;;;;;5080775;28;20141;-57
2023/01/29 07:05:28;;;;;;;37.03;22.63;;;4.40;99.90;;;;;;5080974;28;20120;-57
2023/01/29 07:07:54;;;;;;;35.45;21.67;;;4.40;99.90;;;;;;5062676;28;20508;-57
2023/01/29 07:10:20;;;;;;;37.45;22.40;;;4.20;99.90;;;;;;5080321;28;20044;-57
2023/01/29 07:12:45;;;;;;;41.40;25.60;;;4.50;99.90;;;;;;5080552;28;20044;-57
2023/01/29 07:15:18;;;;;;;39.78;24.50;;;4.10;99.90;;;;;;5062189;28;20063;-57
2023/01/29 07:17:44;;;;;;;46.10;27.30;;;4.10;99.90;;;;;;5080792;28;20036;-57
2023/01/29 07:20:10;;;;;;;40.78;25.40;;;4.00;99.90;;;;;;5080216;28;20148;-56
2023/01/29 07:22:35;;;;;;;38.22;25.67;;;4.00;99.90;;;;;;5080199;28;20044;-57
2023/01/29 07:25:01;;;;;;;44.63;26.83;;;4.00;99.90;;;;;;5061900;28;20045;-57
2023/01/29 07:27:27;;;;;;;42.40;26.85;;;4.30;99.90;;;;;;5080312;28;20044;-57
2023/01/29 07:29:52;;;;;;;44.42;26.52;;;4.20;99.90;;;;;;5080070;28;20041;-57
2023/01/29 07:32:18;;;;;;;38.97;25.77;;;4.50;99.90;;;;;;5080204;28;20036;-57
2023/01/29 07:34:44;;;;;;;41.33;26.23;;;4.10;99.90;;;;;;5080303;28;20048;-56
2023/01/29 07:37:10;;;;;;;40.63;26.20;;;4.40;99.90;;;;;;5080153;28;20041;-57
2023/01/29 07:39:36;;;;;;;44.53;26.38;;;4.10;99.90;;;;;;5080059;28;20055;-56
2023/01/29 07:42:02;;;;;;;39.25;23.75;;;4.30;99.90;;;;;;5079674;28;20040;-56
2023/01/29 07:44:27;;;;;;;34.35;19.23;;;4.10;99.90;;;;;;5079720;28;20054;-57
2023/01/29 07:46:53;;;;;;;38.33;18.98;;;4.40;99.90;;;;;;5079786;28;20060;-57
2023/01/29 07:49:18;;;;;;;28.38;16.63;;;4.40;99.90;;;;;;5079247;28;20044;-56
2023/01/29 07:51:44;;;;;;;33.13;18.13;;;3.90;99.90;;;;;;5076475;28;20048;-57
2023/01/29 07:54:10;;;;;;;32.63;18.27;;;3.90;99.90;;;;;;5066661;28;20041;-56
2023/01/29 07:56:35;;;;;;;32.95;18.17;;;3.80;99.90;;;;;;5076182;28;20048;-56
2023/01/29 07:59:01;;;;;;;32.85;19.23;;;4.10;99.90;;;;;;5076149;28;20670;-57
2023/01/29 08:01:27;;;;;;;30.35;18.08;;;4.30;99.90;;;;;;5076310;28;20048;-57
2023/01/29 08:03:53;;;;;;;30.48;18.10;;;4.50;99.90;;;;;;5075959;28;20186;-56
2023/01/29 08:06:18;;;;;;;31.90;19.70;;;3.90;99.90;;;;;;5065268;28;20470;-57
2023/01/29 08:08:44;;;;;;;30.80;18.33;;;4.00;99.90;;;;;;5073995;28;20421;-56
2023/01/29 08:11:09;;;;;;;35.80;18.90;;;4.20;99.90;;;;;;5057613;28;20036;-57
2023/01/29 08:13:38;;;;;;;30.70;18.25;;;3.80;99.90;;;;;;5058350;28;20417;-57
2023/01/29 08:16:04;;;;;;;31.38;17.58;;;4.40;99.90;;;;;;5074331;28;20036;-56
2023/01/29 08:18:32;;;;;;;32.53;18.73;;;4.30;99.90;;;;;;5075172;28;20036;-56
2023/01/29 08:20:59;;;;;;;37.42;20.55;;;4.10;99.90;;;;;;5075055;28;20048;-57
2023/01/29 08:23:25;;;;;;;36.05;20.40;;;3.70;99.90;;;;;;5075756;28;20048;-57
2023/01/29 08:25:51;;;;;;;36.58;19.25;;;4.40;99.90;;;;;;5075938;28;20094;-56
2023/01/29 08:28:17;;;;;;;33.78;20.80;;;3.70;99.90;;;;;;5077685;28;20106;-56
2023/01/29 08:30:43;;;;;;;33.83;19.42;;;4.10;99.90;;;;;;5084344;28;20072;-57
2023/01/29 08:33:09;;;;;;;33.78;20.40;;;4.10;99.90;;;;;;5057607;28;20068;-57
2023/01/29 08:35:35;;;;;;;39.45;20.52;;;4.10;99.90;;;;;;5079924;28;20745;-56
2023/01/29 08:38:02;;;;;;;35.47;20.17;;;4.30;99.90;;;;;;5074386;28;20079;-56
2023/01/29 08:40:32;;;;;;;36.28;20.25;;;4.40;99.90;;;;;;5073140;28;20242;-57
2023/01/29 08:42:59;;;;;;;39.97;20.92;;;3.70;99.90;;;;;;5088317;28;20052;-57
2023/01/29 08:45:25;;;;;;;33.00;19.98;;;3.70;99.90;;;;;;5091356;28;20036;-56
2023/01/29 08:47:51;;;;;;;42.30;23.02;;;4.20;99.90;;;;;;5095799;28;20054;-57
2023/01/29 08:50:17;;;;;;;41.95;21.15;;;4.40;99.90;;;;;;5095101;28;20050;-57
2023/01/29 08:52:43;;;;;;;36.38;20.67;;;3.90;99.90;;;;;;5095654;28;20048;-57
2023/01/29 08:55:09;;;;;;;35.58;20.55;;;3.70;99.90;;;;;;5075279;28;20047;-57
2023/01/29 08:57:36;;;;;;;34.95;19.70;;;3.80;99.90;;;;;;5075109;28;20056;-56
2023/01/29 09:00:02;;;;;;;33.55;19.38;;;4.50;99.90;;;;;;5075630;28;20048;-56
2023/01/29 09:02:28;;;;;;;40.47;22.35;;;3.90;99.90;;;;;;5075054;28;20048;-57
2023/01/29 09:04:53;;;;;;;34.35;21.73;;;4.40;99.90;;;;;;5075838;28;20052;-57
2023/01/29 09:07:20;;;;;;;34.92;20.67;;;3.90;99.90;;;;;;5074458;28;20056;-56
2023/01/29 09:09:46;;;;;;;39.75;20.80;;;4.50;99.90;;;;;;5075404;28;20072;-55
2023/01/29 09:12:12;;;;;;;36.92;22.15;;;4.60;99.90;;;;;;5075231;28;20037;-57
2023/01/29 09:14:37;;;;;;;39.83;21.63;;;3.90;99.90;;;;;;5074988;28;20049;-54
2023/01/29 09:17:03;;;;;;;38.40;22.20;;;3.90;99.90;;;;;;5075069;28;20032;-53
2023/01/29 09:19:29;;;;;;;38.45;22.35;;;4.70;99.90;;;;;;5074997;28;20052;-54
2023/01/29 09:21:54;;;;;;;37.78;21.80;;;4.00;99.90;;;;;;5075394;28;20060;-54
2023/01/29 09:24:20;;;;;;;36.83;20.70;;;4.30;99.90;;;;;;5074760;28;20055;-52
2023/01/29 09:26:45;;;;;;;37.63;22.27;;;4.40;99.90;;;;;;5073946;28;20051;-55
2023/01/29 09:29:11;;;;;;;39.72;20.20;;;4.80;99.90;;;;;;5074653;28;20041;-52
2023/01/29 09:31:37;;;;;;;37.08;20.15;;;4.60;99.90;;;;;;5056235;28;20110;-54
2023/01/29 09:34:03;;;;;;;41.80;21.65;;;4.10;99.90;;;;;;5057152;28;20107;-53
2023/01/29 09:36:28;;;;;;;35.38;21.27;;;4.70;99.90;;;;;;5074734;28;20071;-53
2023/01/29 09:38:54;;;;;;;40.95;21.08;;;4.50;99.90;;;;;;5075393;28;20057;-55
2023/01/29 09:41:57;;;;;;;38.63;21.10;;;4.20;99.90;;;;;;5074688;28;20066;-51
2023/01/29 09:44:44;;;;;;;39.45;20.92;;;4.70;99.90;;;;;;5074891;28;20079;-54
2023/01/29 09:47:14;;;;;;;38.60;20.90;;;4.80;99.90;;;;;;5078895;28;20041;-55
2023/01/29 09:49:46;;;;;;;39.38;20.65;;;4.40;99.90;;;;;;5078892;28;20044;-54
2023/01/29 09:52:19;;;;;;;39.80;20.15;;;4.60;99.90;;;;;;5078656;28;20080;-54
2023/01/29 09:55:02;;;;;;;37.70;21.38;;;4.20;99.90;;;;;;5078327;28;20751;-54
2023/01/29 09:57:48;;;;;;;38.13;20.80;;;4.20;99.90;;;;;;5078453;28;20052;-54
2023/01/29 10:00:36;;;;;;;41.75;23.13;;;4.20;99.90;;;;;;5079082;28;20204;-53
2023/01/29 10:03:20;;;;;;;31.80;19.02;;;4.60;99.90;;;;;;5076202;28;20045;-54
2023/01/29 10:05:57;;;;;;;42.83;21.67;;;4.90;99.90;;;;;;5076368;28;20132;-54
2023/01/29 10:08:40;;;;;;;37.83;20.77;;;4.40;99.90;;;;;;5078381;28;20068;-54
2023/01/29 10:11:11;;;;;;;;;;;4.40;99.90;;;;;;5078862;28;20127;-53
2023/01/29 10:13:48;;;;;;;39.10;20.88;;;4.80;99.90;;;;;;5078458;28;19931;-53
2023/01/29 10:16:45;;;;;;;39.17;20.38;;;4.60;99.90;;;;;;5077404;28;20044;-54
2023/01/29 10:19:35;;;;;;;38.70;21.63;;;4.30;99.90;;;;;;5077781;28;20052;-55
2023/01/29 10:22:30;;;;;;;40.47;21.77;;;4.90;99.90;;;;;;5078370;28;20072;-51
2023/01/29 10:25:04;;;;;;;37.17;21.25;;;4.80;99.90;;;;;;5055680;28;20048;-54
2023/01/29 10:27:37;;;;;;;36.45;21.25;;;4.40;99.90;;;;;;5059314;28;20123;-55
2023/01/29 10:30:08;;;;;;;35.38;19.63;;;4.10;99.90;;;;;;5078308;28;20037;-53
2023/01/29 10:32:36;;;;;;;43.15;20.85;;;4.10;99.90;;;;;;5077732;28;20764;-51
2023/01/29 10:35:04;;;;;;;39.75;20.67;;;4.40;99.90;;;;;;5077717;28;20063;-53
2023/01/29 10:37:40;;;;;;;35.35;19.52;;;4.90;99.90;;;;;;5076601;28;20047;-54
2023/01/29 10:40:37;;;;;;;39.65;19.20;;;4.20;99.90;;;;;;5059029;28;20048;-55
2023/01/29 10:43:09;;;;;;;36.47;19.95;;;4.60;99.90;;;;;;5072126;28;20060;-53
2023/01/29 10:46:06;;;;;;;38.45;22.08;;;4.90;99.90;;;;;;5077613;28;20055;-50
2023/01/29 10:48:59;;;;;;;34.50;19.58;;;4.30;99.90;;;;;;5057242;28;20055;-54
2023/01/29 10:51:43;;;;;;;39.50;20.58;;;4.40;99.90;;;;;;5057533;28;20059;-55
2023/01/29 10:54:19;;;;;;;34.15;19.25;;;4.90;99.90;;;;;;5068966;28;20048;-52
2023/01/29 10:57:06;;;;;;;33.97;19.50;;;4.40;99.90;;;;;;5077161;28;20056;-54
2023/01/29 10:59:55;;;;;;;38.83;21.20;;;5.10;99.90;;;;;;5059107;28;20720;-52
2023/01/29 11:02:21;;;;;;;36.30;19.23;;;4.30;99.90;;;;;;5076993;28;20789;-52
2023/01/29 11:04:47;;;;;;;39.60;19.27;;;5.10;99.90;;;;;;5059901;28;20076;-55
2023/01/29 11:07:16;;;;;;;44.20;23.02;;;4.80;99.90;;;;;;5077217;28;20071;-53
2023/01/29 11:09:55;;;;;;;35.05;19.40;;;5.50;99.90;;;;;;5077389;28;20065;-51
2023/01/29 11:12:29;;;;;;;38.97;22.15;;;4.70;99.90;;;;;;5077153;28;20199;-52
2023/01/29 11:15:01;;;;;;;39.30;20.52;;;4.40;99.90;;;;;;5076978;28;20056;-53
2023/01/29 11:17:27;;;;;;;37.53;19.52;;;4.50;99.90;;;;;;5077544;28;20131;-53
2023/01/29 11:19:56;;;;;;;35.72;19.08;;;4.80;99.90;;;;;;5076886;28;20076;-53
2023/01/29 11:22:25;;;;;;;35.97;19.80;;;5.20;99.90;;;;;;5077161;28;20810;-52
2023/01/29 11:25:09;;;;;;;37.58;20.25;;;4.60;99.90;;;;;;5076619;28;20114;-54
2023/01/29 11:27:43;;;;;;;38.22;20.15;;;4.80;99.90;;;;;;5076474;28;20083;-55
2023/01/29 11:30:38;;;;;;;36.08;19.27;;;4.70;99.90;;;;;;5077116;28;20070;-55
2023/01/29 11:33:04;;;;;;;32.70;18.52;;;5.50;99.90;;;;;;5076709;28;20040;-51
2023/01/29 11:35:32;;;;;;;35.17;19.25;;;4.60;99.90;;;;;;5076779;28;20054;-55
2023/01/29 11:38:20;;;;;;;30.00;16.83;;;4.70;99.90;;;;;;5075089;28;20044;-53
2023/01/29 11:40:46;;;;;;;37.17;17.33;;;4.80;99.90;;;;;;5063889;28;20116;-55
2023/01/29 11:43:17;;;;;;;29.17;16.17;;;5.50;99.90;;;;;;5076971;28;20052;-52
2023/01/29 11:45:43;;;;;;;31.63;15.98;;;5.50;99.90;;;;;;5075239;28;20044;-54
2023/01/29 11:48:43;;;;;;;29.42;15.85;;;4.90;99.90;;;;;;5076388;28;20059;-52
2023/01/29 11:51:18;;;;;;;29.42;14.85;;;5.30;99.90;;;;;;5076280;28;20059;-53
2023/01/29 11:53:51;;;;;;;33.40;15.80;;;4.90;99.90;;;;;;5075958;28;20041;-50
2023/01/29 11:56:32;;;;;;;27.13;15.52;;;5.30;99.90;;;;;;5076767;28;20054;-51
2023/01/29 11:59:03;;;;;;;28.35;15.63;;;5.00;99.90;;;;;;5076308;28;20645;-53
2023/01/29 12:01:39;;;;;;;26.88;14.45;;;5.40;99.90;;;;;;5075841;28;20139;-53
2023/01/29 12:04:23;;;;;;;25.77;15.30;;;5.70;99.90;;;;;;5078222;28;20045;-54
2023/01/29 12:06:51;;;;;;;;;;;5.00;99.90;;;;;;5079815;28;20070;-51
2023/01/29 12:09:28;;;;;;;23.52;12.75;;;5.50;99.90;;;;;;5079052;28;20332;-54
2023/01/29 12:11:54;;;;;;;25.45;14.43;;;5.40;99.90;;;;;;5079233;28;20043;-53
2023/01/29 12:14:28;;;;;;;26.17;14.25;;;5.60;99.90;;;;;;5079005;28;20048;-54
2023/01/29 12:16:54;;;;;;;27.42;15.40;;;5.10;99.90;;;;;;5079211;28;20048;-54
2023/01/29 12:19:41;;;;;;;27.20;14.02;;;5.20;99.90;;;;;;5078892;28;20044;-52
2023/01/29 12:22:15;;;;;;;23.52;13.57;;;5.70;99.90;;;;;;5079551;28;20045;-51
2023/01/29 12:24:47;;;;;;;27.83;14.18;;;5.80;99.90;;;;;;5072880;28;20055;-53
2023/01/29 12:27:51;;;;;;;25.50;12.98;;;5.20;99.90;;;;;;5040947;28;20587;-54
2023/01/29 12:30:28;;;;;;;24.58;13.98;;;5.70;99.90;;;;;;5014723;28;20045;-51
2023/01/29 12:33:13;;;;;;;23.55;12.60;;;5.80;99.90;;;;;;5040827;28;20121;-54
2023/01/29 12:35:47;;;;;;;23.25;12.77;;;5.30;99.90;;;;;;5041122;28;20515;-53
2023/01/29 12:38:21;;;;;;;22.45;12.93;;;5.90;99.90;;;;;;5058979;28;20105;-53
2023/01/29 12:41:06;;;;;;;20.63;12.38;;;5.20;99.90;;;;;;5058610;28;20053;-54
2023/01/29 12:43:41;;;;;;;20.25;11.32;;;5.80;99.90;;;;;;5041041;28;20051;-53
2023/01/29 12:46:20;;;;;;;22.23;11.23;;;5.40;99.90;;;;;;5058614;28;20036;-53
2023/01/29 12:48:46;;;;;;;21.17;11.43;;;5.30;99.90;;;;;;5040581;28;20041;-53
2023/01/29 12:51:24;;;;;;;21.55;10.27;;;5.30;99.90;;;;;;5058848;28;20093;-52
2023/01/29 12:53:53;;;;;;;26.65;10.98;;;5.40;99.90;;;;;;5058713;28;20037;-54
2023/01/29 12:56:33;;;;;;;20.30;10.25;;;6.00;99.90;;;;;;5041196;28;20602;-52
2023/01/29 12:59:02;;;;;;;16.92;9.63;;;5.60;99.90;;;;;;5058690;28;20064;-50
2023/01/29 13:01:41;;;;;;;18.40;10.80;;;5.30;99.90;;;;;;5058474;28;20053;-54
2023/01/29 13:04:22;;;;;;;17.25;9.18;;;5.40;99.90;;;;;;5058590;28;20044;-53
2023/01/29 13:06:54;;;;;;;15.38;8.93;;;6.00;99.90;;;;;;5057611;28;20063;-52
2023/01/29 13:09:27;;;;;;;18.63;9.57;;;5.70;99.90;;;;;;5041256;28;20049;-53
2023/01/29 13:12:03;;;;;;;18.75;10.00;;;5.40;99.90;;;;;;5058400;28;20048;-54
2023/01/29 13:14:42;;;;;;;17.63;9.02;;;5.50;99.90;;;;;;5058477;28;20576;-52
2023/01/29 13:17:34;;;;;;;18.30;9.43;;;5.20;99.90;;;;;;5058488;28;20587;-53
2023/01/29 13:20:25;;;;;;;19.48;10.10;;;5.10;99.90;;;;;;5037318;28;20184;-52
2023/01/29 13:22:55;;;;;;;17.60;10.18;;;5.90;99.90;;;;;;5062527;28;20040;-54
2023/01/29 13:25:20;;;;;;;22.65;10.80;;;5.90;99.90;;;;;;5062188;28;20068;-52
2023/01/29 13:27:47;;;;;;;21.70;11.02;;;5.10;99.90;;;;;;5044479;28;20041;-53
2023/01/29 13:30:30;;;;;;;22.33;11.55;;;5.10;99.90;;;;;;5062645;28;20053;-54
2023/01/29 13:33:07;;;;;;;24.08;11.93;;;5.10;99.90;;;;;;5062308;28;20052;-52
2023/01/29 13:35:44;;;;;;;24.75;13.57;;;5.80;99.90;;;;;;5062226;28;20416;-52